Aldergrove, Canada
Current Conditions -  °F | °C
As of 10:00 PM on Friday 24 Oct 2014 (Local Time) from CYXX Reporting Station
Overcast Overcast  
Wind Chill: 50°   Ceiling: 10000
Heat Index: 50°   Visibility: 15mi
Dew Point: 45°   Wind: 6mph
Humidity: 82%   Direction: 10°N
Pressure: 29.86"   Gusts: NA
Location:  49.06°N, 122.46°W
Report Text: CYXX 250500Z 01005KT 15SM OVC100 10/07 A2986 RMK AC8 SLP114
Loading
Personal Weather Stations






























Interactive Weather Map
Tropical Storm Tracking
New forecast layout! Learn more

10-Day Weather Forecast

Advertisements
Track Severe Weather on mobile